sensor_id;sensor_type;location;lat;lon;timestamp;P1;durP1;ratioP1;P2;durP2;ratioP2
17987;SDS011;9119;50.932;5.342;2022-09-06T00:00:07;8.40;;;4.80;;
17987;SDS011;9119;50.932;5.342;2022-09-06T00:02:35;6.80;;;4.17;;
17987;SDS011;9119;50.932;5.342;2022-09-06T00:05:02;10.97;;;4.90;;
17987;SDS011;9119;50.932;5.342;2022-09-06T00:07:29;7.83;;;3.97;;
17987;SDS011;9119;50.932;5.342;2022-09-06T00:09:54;7.93;;;3.97;;
17987;SDS011;9119;50.932;5.342;2022-09-06T00:12:21;8.23;;;4.50;;
17987;SDS011;9119;50.932;5.342;2022-09-06T00:14:47;7.33;;;3.97;;
17987;SDS011;9119;50.932;5.342;2022-09-06T00:17:13;13.10;;;4.83;;
17987;SDS011;9119;50.932;5.342;2022-09-06T00:19:39;11.07;;;5.03;;
17987;SDS011;9119;50.932;5.342;2022-09-06T00:22:05;12.40;;;4.83;;
17987;SDS011;9119;50.932;5.342;2022-09-06T00:24:31;10.07;;;4.93;;
17987;SDS011;9119;50.932;5.342;2022-09-06T00:26:56;11.83;;;5.00;;
17987;SDS011;9119;50.932;5.342;2022-09-06T00:29:22;13.07;;;4.90;;
17987;SDS011;9119;50.932;5.342;2022-09-06T00:31:48;12.03;;;5.33;;
17987;SDS011;9119;50.932;5.342;2022-09-06T00:34:16;11.37;;;5.20;;
17987;SDS011;9119;50.932;5.342;2022-09-06T00:36:42;9.33;;;4.93;;
17987;SDS011;9119;50.932;5.342;2022-09-06T00:39:07;7.17;;;4.60;;
17987;SDS011;9119;50.932;5.342;2022-09-06T00:41:33;10.47;;;5.13;;
17987;SDS011;9119;50.932;5.342;2022-09-06T00:43:59;7.83;;;4.80;;
17987;SDS011;9119;50.932;5.342;2022-09-06T00:46:28;8.93;;;4.90;;
17987;SDS011;9119;50.932;5.342;2022-09-06T00:48:56;8.37;;;4.50;;
17987;SDS011;9119;50.932;5.342;2022-09-06T00:51:27;6.83;;;4.37;;
17987;SDS011;9119;50.932;5.342;2022-09-06T00:53:58;6.73;;;4.60;;
17987;SDS011;9119;50.932;5.342;2022-09-06T00:56:27;8.10;;;4.47;;
17987;SDS011;9119;50.932;5.342;2022-09-06T00:58:55;10.13;;;4.97;;
17987;SDS011;9119;50.932;5.342;2022-09-06T01:01:21;6.67;;;4.37;;
17987;SDS011;9119;50.932;5.342;2022-09-06T01:03:46;7.17;;;4.97;;
17987;SDS011;9119;50.932;5.342;2022-09-06T01:11:40;7.47;;;4.73;;
17987;SDS011;9119;50.932;5.342;2022-09-06T01:28:24;7.50;;;4.73;;
17987;SDS011;9119;50.932;5.342;2022-09-06T01:31:06;8.97;;;5.30;;
17987;SDS011;9119;50.932;5.342;2022-09-06T01:34:10;6.40;;;4.60;;
17987;SDS011;9119;50.932;5.342;2022-09-06T01:37:04;9.63;;;5.20;;
17987;SDS011;9119;50.932;5.342;2022-09-06T01:39:40;16.20;;;6.10;;
17987;SDS011;9119;50.932;5.342;2022-09-06T01:42:10;10.20;;;6.00;;
17987;SDS011;9119;50.932;5.342;2022-09-06T01:44:38;9.30;;;5.90;;
17987;SDS011;9119;50.932;5.342;2022-09-06T01:50:09;8.50;;;5.87;;
17987;SDS011;9119;50.932;5.342;2022-09-06T01:58:22;7.07;;;4.80;;
17987;SDS011;9119;50.932;5.342;2022-09-06T02:03:47;7.53;;;4.73;;
17987;SDS011;9119;50.932;5.342;2022-09-06T02:06:33;8.43;;;5.23;;
17987;SDS011;9119;50.932;5.342;2022-09-06T02:09:14;8.50;;;4.90;;
17987;SDS011;9119;50.932;5.342;2022-09-06T02:11:47;8.37;;;5.40;;
17987;SDS011;9119;50.932;5.342;2022-09-06T02:14:19;14.30;;;5.77;;
17987;SDS011;9119;50.932;5.342;2022-09-06T02:16:51;9.40;;;5.70;;
17987;SDS011;9119;50.932;5.342;2022-09-06T02:22:26;10.30;;;5.97;;
17987;SDS011;9119;50.932;5.342;2022-09-06T02:24:55;10.97;;;5.90;;
17987;SDS011;9119;50.932;5.342;2022-09-06T02:27:24;11.77;;;6.30;;
17987;SDS011;9119;50.932;5.342;2022-09-06T02:29:54;11.37;;;6.27;;
17987;SDS011;9119;50.932;5.342;2022-09-06T02:32:23;9.40;;;5.90;;
17987;SDS011;9119;50.932;5.342;2022-09-06T02:34:51;8.37;;;6.07;;
17987;SDS011;9119;50.932;5.342;2022-09-06T02:37:19;11.80;;;5.90;;
17987;SDS011;9119;50.932;5.342;2022-09-06T02:39:47;9.63;;;6.23;;
17987;SDS011;9119;50.932;5.342;2022-09-06T02:42:13;12.77;;;5.83;;
17987;SDS011;9119;50.932;5.342;2022-09-06T02:44:41;14.90;;;6.87;;
17987;SDS011;9119;50.932;5.342;2022-09-06T02:47:07;14.80;;;6.30;;
17987;SDS011;9119;50.932;5.342;2022-09-06T02:49:33;9.53;;;5.97;;
17987;SDS011;9119;50.932;5.342;2022-09-06T02:51:58;10.80;;;6.07;;
17987;SDS011;9119;50.932;5.342;2022-09-06T02:54:24;11.97;;;5.97;;
17987;SDS011;9119;50.932;5.342;2022-09-06T02:56:52;9.90;;;6.03;;
17987;SDS011;9119;50.932;5.342;2022-09-06T02:59:18;11.53;;;6.30;;
17987;SDS011;9119;50.932;5.342;2022-09-06T03:01:44;11.60;;;5.97;;
17987;SDS011;9119;50.932;5.342;2022-09-06T03:04:09;12.77;;;6.03;;
17987;SDS011;9119;50.932;5.342;2022-09-06T03:06:35;10.20;;;5.77;;
17987;SDS011;9119;50.932;5.342;2022-09-06T03:09:00;10.77;;;6.27;;
17987;SDS011;9119;50.932;5.342;2022-09-06T03:11:26;12.90;;;6.67;;
17987;SDS011;9119;50.932;5.342;2022-09-06T03:13:52;9.27;;;6.30;;
17987;SDS011;9119;50.932;5.342;2022-09-06T03:16:18;11.80;;;5.90;;
17987;SDS011;9119;50.932;5.342;2022-09-06T03:18:46;12.37;;;6.37;;
17987;SDS011;9119;50.932;5.342;2022-09-06T03:21:12;7.77;;;5.63;;
17987;SDS011;9119;50.932;5.342;2022-09-06T03:23:38;12.53;;;6.50;;
17987;SDS011;9119;50.932;5.342;2022-09-06T03:26:04;11.17;;;6.27;;
17987;SDS011;9119;50.932;5.342;2022-09-06T03:28:31;9.77;;;5.43;;
17987;SDS011;9119;50.932;5.342;2022-09-06T03:30:57;13.43;;;6.50;;
17987;SDS011;9119;50.932;5.342;2022-09-06T03:33:23;8.73;;;5.63;;
17987;SDS011;9119;50.932;5.342;2022-09-06T03:35:49;10.90;;;5.60;;
17987;SDS011;9119;50.932;5.342;2022-09-06T03:38:20;9.63;;;5.30;;
17987;SDS011;9119;50.932;5.342;2022-09-06T03:40:47;11.33;;;5.97;;
17987;SDS011;9119;50.932;5.342;2022-09-06T03:43:14;12.33;;;6.23;;
17987;SDS011;9119;50.932;5.342;2022-09-06T03:45:48;12.93;;;6.30;;
17987;SDS011;9119;50.932;5.342;2022-09-06T03:48:15;12.33;;;5.80;;
17987;SDS011;9119;50.932;5.342;2022-09-06T03:50:44;11.70;;;5.90;;
17987;SDS011;9119;50.932;5.342;2022-09-06T03:53:11;14.30;;;6.50;;
17987;SDS011;9119;50.932;5.342;2022-09-06T03:55:37;13.90;;;6.27;;
17987;SDS011;9119;50.932;5.342;2022-09-06T03:58:02;10.23;;;6.37;;
17987;SDS011;9119;50.932;5.342;2022-09-06T04:00:28;10.87;;;5.70;;
17987;SDS011;9119;50.932;5.342;2022-09-06T04:02:54;8.87;;;6.60;;
17987;SDS011;9119;50.932;5.342;2022-09-06T04:05:19;12.97;;;7.27;;
17987;SDS011;9119;50.932;5.342;2022-09-06T04:07:45;16.37;;;8.10;;
17987;SDS011;9119;50.932;5.342;2022-09-06T04:10:10;15.50;;;7.80;;
17987;SDS011;9119;50.932;5.342;2022-09-06T04:12:36;11.17;;;7.93;;
17987;SDS011;9119;50.932;5.342;2022-09-06T04:15:02;14.97;;;7.83;;
17987;SDS011;9119;50.932;5.342;2022-09-06T04:17:28;17.70;;;8.90;;
17987;SDS011;9119;50.932;5.342;2022-09-06T04:19:54;13.67;;;8.77;;
17987;SDS011;9119;50.932;5.342;2022-09-06T04:22:19;14.83;;;7.97;;
17987;SDS011;9119;50.932;5.342;2022-09-06T04:24:45;13.47;;;8.20;;
17987;SDS011;9119;50.932;5.342;2022-09-06T04:27:11;14.23;;;8.57;;
17987;SDS011;9119;50.932;5.342;2022-09-06T04:29:37;16.57;;;8.77;;
17987;SDS011;9119;50.932;5.342;2022-09-06T04:32:02;17.20;;;8.27;;
17987;SDS011;9119;50.932;5.342;2022-09-06T04:34:28;14.00;;;8.03;;
17987;SDS011;9119;50.932;5.342;2022-09-06T04:36:54;16.47;;;8.83;;
17987;SDS011;9119;50.932;5.342;2022-09-06T04:39:20;12.93;;;8.30;;
17987;SDS011;9119;50.932;5.342;2022-09-06T04:41:48;14.13;;;8.87;;
17987;SDS011;9119;50.932;5.342;2022-09-06T04:44:14;15.07;;;8.73;;
17987;SDS011;9119;50.932;5.342;2022-09-06T04:46:42;19.67;;;8.73;;
17987;SDS011;9119;50.932;5.342;2022-09-06T04:49:08;16.23;;;8.70;;
17987;SDS011;9119;50.932;5.342;2022-09-06T04:51:34;17.20;;;8.27;;
17987;SDS011;9119;50.932;5.342;2022-09-06T04:54:01;15.30;;;8.80;;
17987;SDS011;9119;50.932;5.342;2022-09-06T04:56:27;15.67;;;9.07;;
17987;SDS011;9119;50.932;5.342;2022-09-06T04:58:53;13.93;;;9.00;;
17987;SDS011;9119;50.932;5.342;2022-09-06T05:01:19;16.43;;;8.77;;
17987;SDS011;9119;50.932;5.342;2022-09-06T05:03:45;13.47;;;8.50;;
17987;SDS011;9119;50.932;5.342;2022-09-06T05:06:12;15.77;;;9.33;;
17987;SDS011;9119;50.932;5.342;2022-09-06T05:08:42;16.13;;;9.53;;
17987;SDS011;9119;50.932;5.342;2022-09-06T05:11:08;16.00;;;8.73;;
17987;SDS011;9119;50.932;5.342;2022-09-06T05:13:35;12.53;;;8.90;;
17987;SDS011;9119;50.932;5.342;2022-09-06T05:16:02;19.20;;;10.27;;
17987;SDS011;9119;50.932;5.342;2022-09-06T05:18:29;15.87;;;9.63;;
17987;SDS011;9119;50.932;5.342;2022-09-06T05:20:55;18.63;;;9.27;;
17987;SDS011;9119;50.932;5.342;2022-09-06T05:23:21;17.83;;;9.90;;
17987;SDS011;9119;50.932;5.342;2022-09-06T05:25:47;14.33;;;9.30;;
17987;SDS011;9119;50.932;5.342;2022-09-06T05:28:13;16.23;;;10.43;;
17987;SDS011;9119;50.932;5.342;2022-09-06T05:30:40;17.20;;;9.73;;
17987;SDS011;9119;50.932;5.342;2022-09-06T05:33:06;15.20;;;8.83;;
17987;SDS011;9119;50.932;5.342;2022-09-06T05:35:33;16.67;;;9.90;;
17987;SDS011;9119;50.932;5.342;2022-09-06T05:37:58;15.57;;;8.73;;
17987;SDS011;9119;50.932;5.342;2022-09-06T05:40:24;15.13;;;9.10;;
17987;SDS011;9119;50.932;5.342;2022-09-06T05:42:50;15.13;;;9.60;;
17987;SDS011;9119;50.932;5.342;2022-09-06T05:45:16;16.27;;;9.27;;
17987;SDS011;9119;50.932;5.342;2022-09-06T05:47:41;19.93;;;8.93;;
17987;SDS011;9119;50.932;5.342;2022-09-06T05:50:07;17.43;;;9.10;;
17987;SDS011;9119;50.932;5.342;2022-09-06T05:52:33;13.60;;;8.70;;
17987;SDS011;9119;50.932;5.342;2022-09-06T05:54:59;16.30;;;9.27;;
17987;SDS011;9119;50.932;5.342;2022-09-06T05:57:25;14.50;;;8.53;;
17987;SDS011;9119;50.932;5.342;2022-09-06T05:59:51;13.60;;;8.10;;
17987;SDS011;9119;50.932;5.342;2022-09-06T06:02:20;15.60;;;8.60;;
17987;SDS011;9119;50.932;5.342;2022-09-06T06:04:46;14.63;;;8.20;;
17987;SDS011;9119;50.932;5.342;2022-09-06T06:07:12;16.50;;;8.47;;
17987;SDS011;9119;50.932;5.342;2022-09-06T06:09:39;15.33;;;7.70;;
17987;SDS011;9119;50.932;5.342;2022-09-06T06:12:05;13.13;;;7.83;;
17987;SDS011;9119;50.932;5.342;2022-09-06T06:14:31;15.90;;;7.30;;
17987;SDS011;9119;50.932;5.342;2022-09-06T06:16:57;12.93;;;7.30;;
17987;SDS011;9119;50.932;5.342;2022-09-06T06:19:22;11.40;;;7.03;;
17987;SDS011;9119;50.932;5.342;2022-09-06T06:21:50;11.03;;;6.83;;
17987;SDS011;9119;50.932;5.342;2022-09-06T06:24:16;16.80;;;6.47;;
17987;SDS011;9119;50.932;5.342;2022-09-06T06:26:42;13.67;;;7.07;;
17987;SDS011;9119;50.932;5.342;2022-09-06T06:29:07;13.27;;;7.40;;
17987;SDS011;9119;50.932;5.342;2022-09-06T06:31:34;13.00;;;6.80;;
17987;SDS011;9119;50.932;5.342;2022-09-06T06:34:00;9.90;;;5.97;;
17987;SDS011;9119;50.932;5.342;2022-09-06T06:36:29;16.03;;;7.43;;
17987;SDS011;9119;50.932;5.342;2022-09-06T06:38:57;11.57;;;6.00;;
17987;SDS011;9119;50.932;5.342;2022-09-06T06:41:27;10.37;;;6.40;;
17987;SDS011;9119;50.932;5.342;2022-09-06T06:43:59;8.70;;;5.70;;
17987;SDS011;9119;50.932;5.342;2022-09-06T06:46:30;9.90;;;6.07;;
17987;SDS011;9119;50.932;5.342;2022-09-06T06:48:57;7.67;;;5.40;;
17987;SDS011;9119;50.932;5.342;2022-09-06T06:51:24;11.80;;;5.63;;
17987;SDS011;9119;50.932;5.342;2022-09-06T06:53:52;12.43;;;5.13;;
17987;SDS011;9119;50.932;5.342;2022-09-06T06:56:22;8.83;;;4.60;;
17987;SDS011;9119;50.932;5.342;2022-09-06T06:58:59;10.17;;;4.93;;
17987;SDS011;9119;50.932;5.342;2022-09-06T07:01:27;10.33;;;5.60;;
17987;SDS011;9119;50.932;5.342;2022-09-06T07:03:54;11.27;;;4.50;;
17987;SDS011;9119;50.932;5.342;2022-09-06T07:06:23;10.30;;;4.23;;
17987;SDS011;9119;50.932;5.342;2022-09-06T07:08:55;10.53;;;4.13;;
17987;SDS011;9119;50.932;5.342;2022-09-06T07:11:24;9.37;;;4.07;;
17987;SDS011;9119;50.932;5.342;2022-09-06T07:13:51;5.87;;;3.80;;
17987;SDS011;9119;50.932;5.342;2022-09-06T07:47:20;12.03;;;3.70;;
17987;SDS011;9119;50.932;5.342;2022-09-06T07:49:46;8.07;;;3.37;;
17987;SDS011;9119;50.932;5.342;2022-09-06T07:52:11;6.63;;;3.33;;
17987;SDS011;9119;50.932;5.342;2022-09-06T07:54:40;7.40;;;2.83;;
17987;SDS011;9119;50.932;5.342;2022-09-06T07:57:05;9.47;;;2.53;;
17987;SDS011;9119;50.932;5.342;2022-09-06T07:59:31;5.50;;;3.03;;
17987;SDS011;9119;50.932;5.342;2022-09-06T08:01:56;7.80;;;2.60;;
17987;SDS011;9119;50.932;5.342;2022-09-06T08:04:22;5.10;;;2.43;;
17987;SDS011;9119;50.932;5.342;2022-09-06T08:06:48;7.00;;;2.57;;
17987;SDS011;9119;50.932;5.342;2022-09-06T08:09:16;7.93;;;2.47;;
17987;SDS011;9119;50.932;5.342;2022-09-06T08:11:41;7.87;;;2.27;;
17987;SDS011;9119;50.932;5.342;2022-09-06T08:14:08;9.00;;;4.10;;
17987;SDS011;9119;50.932;5.342;2022-09-06T08:16:35;6.97;;;2.87;;
17987;SDS011;9119;50.932;5.342;2022-09-06T08:19:03;10.17;;;4.17;;
17987;SDS011;9119;50.932;5.342;2022-09-06T08:21:32;3.97;;;2.40;;
17987;SDS011;9119;50.932;5.342;2022-09-06T08:24:01;4.50;;;2.07;;
17987;SDS011;9119;50.932;5.342;2022-09-06T08:26:29;5.00;;;2.07;;
17987;SDS011;9119;50.932;5.342;2022-09-06T08:28:57;14.97;;;2.33;;
17987;SDS011;9119;50.932;5.342;2022-09-06T08:31:28;3.37;;;2.17;;
17987;SDS011;9119;50.932;5.342;2022-09-06T08:33:55;5.13;;;2.83;;
17987;SDS011;9119;50.932;5.342;2022-09-06T08:36:21;3.77;;;2.47;;
17987;SDS011;9119;50.932;5.342;2022-09-06T08:38:51;7.50;;;2.70;;
17987;SDS011;9119;50.932;5.342;2022-09-06T08:41:20;5.03;;;2.47;;
17987;SDS011;9119;50.932;5.342;2022-09-06T08:43:54;5.00;;;2.00;;
17987;SDS011;9119;50.932;5.342;2022-09-06T08:49:06;7.00;;;2.27;;
17987;SDS011;9119;50.932;5.342;2022-09-06T08:54:37;5.90;;;2.20;;
17987;SDS011;9119;50.932;5.342;2022-09-06T08:59:52;7.20;;;2.20;;
17987;SDS011;9119;50.932;5.342;2022-09-06T09:02:25;10.93;;;2.40;;
17987;SDS011;9119;50.932;5.342;2022-09-06T09:04:54;4.63;;;2.23;;
17987;SDS011;9119;50.932;5.342;2022-09-06T09:07:42;5.85;;;1.75;;
17987;SDS011;9119;50.932;5.342;2022-09-06T09:10:18;5.20;;;1.90;;
17987;SDS011;9119;50.932;5.342;2022-09-06T09:12:51;3.80;;;2.03;;
17987;SDS011;9119;50.932;5.342;2022-09-06T09:15:18;8.05;;;1.95;;
17987;SDS011;9119;50.932;5.342;2022-09-06T09:17:44;5.03;;;1.85;;
17987;SDS011;9119;50.932;5.342;2022-09-06T09:20:12;6.13;;;1.60;;
17987;SDS011;9119;50.932;5.342;2022-09-06T09:22:38;8.02;;;2.72;;
17987;SDS011;9119;50.932;5.342;2022-09-06T09:25:06;6.53;;;2.47;;
17987;SDS011;9119;50.932;5.342;2022-09-06T09:27:36;7.18;;;1.83;;
17987;SDS011;9119;50.932;5.342;2022-09-06T09:30:04;6.07;;;2.20;;
17987;SDS011;9119;50.932;5.342;2022-09-06T09:32:35;5.18;;;2.05;;
17987;SDS011;9119;50.932;5.342;2022-09-06T09:35:24;12.80;;;2.45;;
17987;SDS011;9119;50.932;5.342;2022-09-06T09:37:58;9.20;;;2.10;;
17987;SDS011;9119;50.932;5.342;2022-09-06T09:40:33;9.48;;;1.88;;
17987;SDS011;9119;50.932;5.342;2022-09-06T09:43:08;16.20;;;2.53;;
17987;SDS011;9119;50.932;5.342;2022-09-06T09:45:37;5.53;;;2.17;;
17987;SDS011;9119;50.932;5.342;2022-09-06T09:53:49;5.65;;;2.05;;
17987;SDS011;9119;50.932;5.342;2022-09-06T09:56:15;5.55;;;1.85;;
17987;SDS011;9119;50.932;5.342;2022-09-06T09:58:41;7.20;;;2.08;;
17987;SDS011;9119;50.932;5.342;2022-09-06T10:01:08;6.75;;;2.08;;
17987;SDS011;9119;50.932;5.342;2022-09-06T10:03:42;4.30;;;2.03;;
17987;SDS011;9119;50.932;5.342;2022-09-06T10:06:09;7.28;;;2.63;;
17987;SDS011;9119;50.932;5.342;2022-09-06T10:08:38;7.13;;;1.85;;
17987;SDS011;9119;50.932;5.342;2022-09-06T10:11:12;10.88;;;2.35;;
17987;SDS011;9119;50.932;5.342;2022-09-06T10:13:38;5.93;;;2.10;;
17987;SDS011;9119;50.932;5.342;2022-09-06T10:16:06;8.75;;;2.08;;
17987;SDS011;9119;50.932;5.342;2022-09-06T10:21:12;7.45;;;1.85;;
17987;SDS011;9119;50.932;5.342;2022-09-06T10:24:05;2.22;;;1.45;;
17987;SDS011;9119;50.932;5.342;2022-09-06T10:26:36;7.70;;;2.20;;
17987;SDS011;9119;50.932;5.342;2022-09-06T10:29:14;5.22;;;2.70;;
17987;SDS011;9119;50.932;5.342;2022-09-06T10:40:44;7.22;;;2.00;;
17987;SDS011;9119;50.932;5.342;2022-09-06T10:43:20;9.70;;;2.13;;
17987;SDS011;9119;50.932;5.342;2022-09-06T10:45:58;4.88;;;1.92;;
17987;SDS011;9119;50.932;5.342;2022-09-06T10:48:47;6.70;;;2.00;;
17987;SDS011;9119;50.932;5.342;2022-09-06T10:54:06;6.10;;;1.90;;
17987;SDS011;9119;50.932;5.342;2022-09-06T10:59:18;5.65;;;2.78;;
17987;SDS011;9119;50.932;5.342;2022-09-06T11:04:49;2.58;;;1.70;;
17987;SDS011;9119;50.932;5.342;2022-09-06T11:09:50;6.80;;;2.10;;
17987;SDS011;9119;50.932;5.342;2022-09-06T11:15:03;4.68;;;1.83;;
17987;SDS011;9119;50.932;5.342;2022-09-06T11:17:33;4.75;;;1.58;;
17987;SDS011;9119;50.932;5.342;2022-09-06T11:20:16;6.78;;;2.50;;
17987;SDS011;9119;50.932;5.342;2022-09-06T11:25:32;5.55;;;2.47;;
17987;SDS011;9119;50.932;5.342;2022-09-06T11:28:09;7.13;;;1.90;;
17987;SDS011;9119;50.932;5.342;2022-09-06T11:30:43;6.40;;;2.17;;
17987;SDS011;9119;50.932;5.342;2022-09-06T11:33:22;6.60;;;2.40;;
17987;SDS011;9119;50.932;5.342;2022-09-06T11:36:16;6.18;;;2.45;;
17987;SDS011;9119;50.932;5.342;2022-09-06T11:39:00;3.60;;;2.00;;
17987;SDS011;9119;50.932;5.342;2022-09-06T11:41:32;7.00;;;2.20;;
17987;SDS011;9119;50.932;5.342;2022-09-06T11:44:00;6.77;;;2.47;;
17987;SDS011;9119;50.932;5.342;2022-09-06T11:49:01;4.17;;;1.90;;
17987;SDS011;9119;50.932;5.342;2022-09-06T11:51:37;4.37;;;2.17;;
17987;SDS011;9119;50.932;5.342;2022-09-06T11:56:50;7.00;;;2.50;;
17987;SDS011;9119;50.932;5.342;2022-09-06T12:04:23;5.83;;;1.93;;
17987;SDS011;9119;50.932;5.342;2022-09-06T12:07:28;3.03;;;1.77;;
17987;SDS011;9119;50.932;5.342;2022-09-06T12:09:55;11.77;;;2.47;;
17987;SDS011;9119;50.932;5.342;2022-09-06T12:15:26;5.33;;;1.90;;
17987;SDS011;9119;50.932;5.342;2022-09-06T12:17:54;3.23;;;1.90;;
17987;SDS011;9119;50.932;5.342;2022-09-06T12:26:04;4.00;;;2.03;;
17987;SDS011;9119;50.932;5.342;2022-09-06T12:28:39;4.17;;;2.07;;
17987;SDS011;9119;50.932;5.342;2022-09-06T12:33:51;5.77;;;1.77;;
17987;SDS011;9119;50.932;5.342;2022-09-06T12:38:59;7.57;;;2.23;;
17987;SDS011;9119;50.932;5.342;2022-09-06T12:41:46;8.00;;;2.10;;
17987;SDS011;9119;50.932;5.342;2022-09-06T12:44:22;4.83;;;2.10;;
17987;SDS011;9119;50.932;5.342;2022-09-06T12:46:52;6.20;;;2.10;;
17987;SDS011;9119;50.932;5.342;2022-09-06T12:49:19;5.83;;;2.27;;
17987;SDS011;9119;50.932;5.342;2022-09-06T12:51:46;3.60;;;2.10;;
17987;SDS011;9119;50.932;5.342;2022-09-06T12:54:21;4.30;;;2.00;;
17987;SDS011;9119;50.932;5.342;2022-09-06T12:56:49;5.20;;;1.90;;
17987;SDS011;9119;50.932;5.342;2022-09-06T12:59:22;6.33;;;2.17;;
17987;SDS011;9119;50.932;5.342;2022-09-06T13:04:42;4.03;;;2.10;;
17987;SDS011;9119;50.932;5.342;2022-09-06T13:07:13;8.30;;;2.13;;
17987;SDS011;9119;50.932;5.342;2022-09-06T13:09:42;8.07;;;2.03;;
17987;SDS011;9119;50.932;5.342;2022-09-06T13:14:57;8.13;;;2.07;;
17987;SDS011;9119;50.932;5.342;2022-09-06T13:17:35;6.23;;;1.87;;
17987;SDS011;9119;50.932;5.342;2022-09-06T13:20:35;5.63;;;2.07;;
17987;SDS011;9119;50.932;5.342;2022-09-06T13:23:10;3.23;;;2.20;;
17987;SDS011;9119;50.932;5.342;2022-09-06T13:25:50;4.40;;;1.90;;
17987;SDS011;9119;50.932;5.342;2022-09-06T13:28:30;4.90;;;1.97;;
17987;SDS011;9119;50.932;5.342;2022-09-06T13:33:53;3.10;;;1.80;;
17987;SDS011;9119;50.932;5.342;2022-09-06T13:36:23;6.90;;;1.90;;
17987;SDS011;9119;50.932;5.342;2022-09-06T13:38:52;4.60;;;1.80;;
17987;SDS011;9119;50.932;5.342;2022-09-06T13:44:01;3.10;;;1.70;;
17987;SDS011;9119;50.932;5.342;2022-09-06T13:46:29;3.43;;;1.57;;
17987;SDS011;9119;50.932;5.342;2022-09-06T13:48:56;4.27;;;2.33;;
17987;SDS011;9119;50.932;5.342;2022-09-06T13:51:22;7.23;;;2.70;;
17987;SDS011;9119;50.932;5.342;2022-09-06T13:53:50;3.27;;;1.73;;
17987;SDS011;9119;50.932;5.342;2022-09-06T13:56:27;3.40;;;2.07;;
17987;SDS011;9119;50.932;5.342;2022-09-06T13:58:53;3.70;;;2.00;;
17987;SDS011;9119;50.932;5.342;2022-09-06T14:01:19;3.13;;;1.83;;
17987;SDS011;9119;50.932;5.342;2022-09-06T14:03:45;6.73;;;1.53;;
17987;SDS011;9119;50.932;5.342;2022-09-06T14:06:11;3.90;;;2.10;;
17987;SDS011;9119;50.932;5.342;2022-09-06T14:08:36;4.87;;;1.80;;
17987;SDS011;9119;50.932;5.342;2022-09-06T14:11:03;5.50;;;2.13;;
17987;SDS011;9119;50.932;5.342;2022-09-06T14:13:29;4.10;;;2.67;;
17987;SDS011;9119;50.932;5.342;2022-09-06T14:15:55;3.63;;;1.70;;
17987;SDS011;9119;50.932;5.342;2022-09-06T14:18:23;4.03;;;1.67;;
17987;SDS011;9119;50.932;5.342;2022-09-06T14:20:52;13.47;;;3.77;;
17987;SDS011;9119;50.932;5.342;2022-09-06T14:23:22;6.80;;;1.87;;
17987;SDS011;9119;50.932;5.342;2022-09-06T14:25:48;11.80;;;2.30;;
17987;SDS011;9119;50.932;5.342;2022-09-06T14:28:18;4.07;;;2.70;;
17987;SDS011;9119;50.932;5.342;2022-09-06T14:30:44;4.37;;;1.70;;
17987;SDS011;9119;50.932;5.342;2022-09-06T14:33:10;4.33;;;1.93;;
17987;SDS011;9119;50.932;5.342;2022-09-06T14:35:35;6.77;;;1.73;;
17987;SDS011;9119;50.932;5.342;2022-09-06T14:38:03;3.47;;;2.30;;
17987;SDS011;9119;50.932;5.342;2022-09-06T14:40:28;4.30;;;1.53;;
17987;SDS011;9119;50.932;5.342;2022-09-06T14:42:59;6.70;;;2.00;;
17987;SDS011;9119;50.932;5.342;2022-09-06T14:45:24;3.00;;;1.67;;
17987;SDS011;9119;50.932;5.342;2022-09-06T14:47:50;5.20;;;1.80;;
17987;SDS011;9119;50.932;5.342;2022-09-06T14:50:15;3.37;;;1.50;;
17987;SDS011;9119;50.932;5.342;2022-09-06T14:52:41;2.90;;;1.80;;
17987;SDS011;9119;50.932;5.342;2022-09-06T14:55:07;3.73;;;1.80;;
17987;SDS011;9119;50.932;5.342;2022-09-06T14:57:33;3.63;;;1.70;;
17987;SDS011;9119;50.932;5.342;2022-09-06T14:59:59;3.53;;;1.57;;
17987;SDS011;9119;50.932;5.342;2022-09-06T15:02:25;14.97;;;3.67;;
17987;SDS011;9119;50.932;5.342;2022-09-06T15:04:53;5.87;;;2.10;;
17987;SDS011;9119;50.932;5.342;2022-09-06T15:07:19;6.83;;;1.83;;
17987;SDS011;9119;50.932;5.342;2022-09-06T15:09:45;2.37;;;1.70;;
17987;SDS011;9119;50.932;5.342;2022-09-06T15:12:11;4.63;;;1.30;;
17987;SDS011;9119;50.932;5.342;2022-09-06T15:14:37;2.23;;;1.40;;
17987;SDS011;9119;50.932;5.342;2022-09-06T15:17:05;2.43;;;1.50;;
17987;SDS011;9119;50.932;5.342;2022-09-06T15:19:32;4.20;;;1.63;;
17987;SDS011;9119;50.932;5.342;2022-09-06T15:22:00;3.27;;;1.47;;
17987;SDS011;9119;50.932;5.342;2022-09-06T15:24:26;5.13;;;1.30;;
17987;SDS011;9119;50.932;5.342;2022-09-06T15:26:52;3.80;;;1.80;;
17987;SDS011;9119;50.932;5.342;2022-09-06T15:29:18;7.63;;;1.73;;
17987;SDS011;9119;50.932;5.342;2022-09-06T15:31:44;2.80;;;1.50;;
17987;SDS011;9119;50.932;5.342;2022-09-06T15:34:14;13.03;;;1.80;;
17987;SDS011;9119;50.932;5.342;2022-09-06T15:36:40;1.87;;;1.23;;
17987;SDS011;9119;50.932;5.342;2022-09-06T15:39:06;3.93;;;1.87;;
17987;SDS011;9119;50.932;5.342;2022-09-06T15:41:33;2.07;;;1.40;;
17987;SDS011;9119;50.932;5.342;2022-09-06T15:44:01;4.67;;;1.30;;
17987;SDS011;9119;50.932;5.342;2022-09-06T15:49:00;3.63;;;1.90;;
17987;SDS011;9119;50.932;5.342;2022-09-06T15:51:27;2.83;;;1.73;;
17987;SDS011;9119;50.932;5.342;2022-09-06T15:53:53;3.00;;;1.53;;
17987;SDS011;9119;50.932;5.342;2022-09-06T15:56:19;2.63;;;1.77;;
17987;SDS011;9119;50.932;5.342;2022-09-06T15:58:44;2.30;;;1.50;;
17987;SDS011;9119;50.932;5.342;2022-09-06T16:01:12;2.97;;;1.87;;
17987;SDS011;9119;50.932;5.342;2022-09-06T16:03:41;2.80;;;1.83;;
17987;SDS011;9119;50.932;5.342;2022-09-06T16:06:12;9.37;;;2.10;;
17987;SDS011;9119;50.932;5.342;2022-09-06T16:08:40;6.00;;;1.93;;
17987;SDS011;9119;50.932;5.342;2022-09-06T16:11:09;5.67;;;1.80;;
17987;SDS011;9119;50.932;5.342;2022-09-06T16:13:37;10.17;;;3.17;;
17987;SDS011;9119;50.932;5.342;2022-09-06T16:16:05;5.97;;;2.30;;
17987;SDS011;9119;50.932;5.342;2022-09-06T16:18:33;2.27;;;1.57;;
17987;SDS011;9119;50.932;5.342;2022-09-06T16:21:04;3.00;;;1.53;;
17987;SDS011;9119;50.932;5.342;2022-09-06T16:23:29;3.07;;;1.70;;
17987;SDS011;9119;50.932;5.342;2022-09-06T16:25:55;4.97;;;1.87;;
17987;SDS011;9119;50.932;5.342;2022-09-06T16:28:21;2.37;;;1.80;;
17987;SDS011;9119;50.932;5.342;2022-09-06T16:30:46;5.90;;;1.90;;
17987;SDS011;9119;50.932;5.342;2022-09-06T16:33:12;6.43;;;3.20;;
17987;SDS011;9119;50.932;5.342;2022-09-06T16:35:39;5.30;;;2.10;;
17987;SDS011;9119;50.932;5.342;2022-09-06T16:38:05;3.80;;;1.83;;
17987;SDS011;9119;50.932;5.342;2022-09-06T16:40:32;4.43;;;1.90;;
17987;SDS011;9119;50.932;5.342;2022-09-06T16:43:01;8.07;;;3.10;;
17987;SDS011;9119;50.932;5.342;2022-09-06T16:45:28;13.10;;;3.43;;
17987;SDS011;9119;50.932;5.342;2022-09-06T16:47:55;4.67;;;1.90;;
17987;SDS011;9119;50.932;5.342;2022-09-06T16:50:21;4.17;;;1.87;;
17987;SDS011;9119;50.932;5.342;2022-09-06T16:52:47;9.63;;;2.27;;
17987;SDS011;9119;50.932;5.342;2022-09-06T16:55:14;5.30;;;2.30;;
17987;SDS011;9119;50.932;5.342;2022-09-06T16:57:39;5.47;;;1.97;;
17987;SDS011;9119;50.932;5.342;2022-09-06T17:00:05;7.10;;;2.77;;
17987;SDS011;9119;50.932;5.342;2022-09-06T17:02:31;9.47;;;4.13;;
17987;SDS011;9119;50.932;5.342;2022-09-06T17:04:57;6.40;;;2.20;;
17987;SDS011;9119;50.932;5.342;2022-09-06T17:07:23;4.90;;;1.87;;
17987;SDS011;9119;50.932;5.342;2022-09-06T17:09:49;3.20;;;1.73;;
17987;SDS011;9119;50.932;5.342;2022-09-06T17:12:14;4.97;;;3.00;;
17987;SDS011;9119;50.932;5.342;2022-09-06T17:14:40;9.07;;;2.10;;
17987;SDS011;9119;50.932;5.342;2022-09-06T17:17:06;4.77;;;2.20;;
17987;SDS011;9119;50.932;5.342;2022-09-06T17:19:37;6.00;;;1.80;;
17987;SDS011;9119;50.932;5.342;2022-09-06T17:22:07;6.47;;;2.10;;
17987;SDS011;9119;50.932;5.342;2022-09-06T17:24:37;6.67;;;1.53;;
17987;SDS011;9119;50.932;5.342;2022-09-06T17:27:03;4.97;;;1.80;;
17987;SDS011;9119;50.932;5.342;2022-09-06T17:29:29;13.77;;;5.67;;